METAR AND TAF INFORMATION
METAR FOR CYKL
ADDS - METARS form results

(1437 UTC 20 January 2019)
Data provider http://aviationweather.gov/metar/data/
 
METAR text: CYKL 201418Z AUTO 24008G16KT 220V280 6SM HZ SCT006 M36/M41 A3016 RMK SLP305
Conditions at: CYKL (SCHEFFERVILLE AR, QC, CA) observed 1418 UTC 20 January 2019
Temperature: -36.0°C (-33°F)
Dewpoint: -41.0°C (-42°F) [RH = 60%]
Pressure (altimeter): 30.16 inches Hg (1021.4 mb)
[Sea-level pressure: 1030.5 mb]
Winds: from the WSW (240 degrees) at 9 MPH (8 knots; 4.1 m/s)
gusting to 18 MPH (16 knots; 8.2 m/s)
Visibility: 6 miles (10 km)
Ceiling: at least 12,000 feet AGL
Clouds: scattered clouds at 600 feet AGL
Weather: HZ  (haze)

METAR text: CYKL 201414Z AUTO 25010G17KT 5SM HZ SCT006 M36/M41 A3015 RMK SLP302
Conditions at: CYKL (SCHEFFERVILLE AR, QC, CA) observed 1414 UTC 20 January 2019
Temperature: -36.0°C (-33°F)
Dewpoint: -41.0°C (-42°F) [RH = 60%]
Pressure (altimeter): 30.15 inches Hg (1021.1 mb)
[Sea-level pressure: 1030.2 mb]
Winds: from the WSW (250 degrees) at 12 MPH (10 knots; 5.1 m/s)
gusting to 20 MPH (17 knots; 8.7 m/s)
Visibility: 5 miles ( 8 km)
Ceiling: at least 12,000 feet AGL
Clouds: scattered clouds at 600 feet AGL
Weather: HZ  (haze)

METAR text: CYKL 201410Z AUTO 26012G17KT 4SM HZ BKN006 M36/M41 A3015 RMK SLP302
Conditions at: CYKL (SCHEFFERVILLE AR, QC, CA) observed 1410 UTC 20 January 2019
Temperature: -36.0°C (-33°F)
Dewpoint: -41.0°C (-42°F) [RH = 60%]
Pressure (altimeter): 30.15 inches Hg (1021.1 mb)
[Sea-level pressure: 1030.2 mb]
Winds: from the W (260 degrees) at 14 MPH (12 knots; 6.2 m/s)
gusting to 20 MPH (17 knots; 8.7 m/s)
Visibility: 4 miles ( 6 km)
Ceiling: 600 feet AGL
Clouds: broken clouds at 600 feet AGL
Weather: HZ  (haze)

METAR text: CYKL 201400Z AUTO 28010G15KT 230V300 3SM HZ OVC008 M36/M41 A3015 RMK SLP303
Conditions at: CYKL (SCHEFFERVILLE AR, QC, CA) observed 1400 UTC 20 January 2019
Temperature: -36.0°C (-33°F)
Dewpoint: -41.0°C (-42°F) [RH = 60%]
Pressure (altimeter): 30.15 inches Hg (1021.1 mb)
[Sea-level pressure: 1030.3 mb]
Winds: from the W (280 degrees) at 12 MPH (10 knots; 5.1 m/s)
gusting to 17 MPH (15 knots; 7.7 m/s)
Visibility: 3 miles ( 5 km)
Ceiling: 800 feet AGL
Clouds: overcast cloud deck at 800 feet AGL
Weather: HZ  (haze)

METAR text: CYKL 201342Z AUTO 31003KT 190V340 3SM HZ BKN008 OVC011 M37/M42 A3016 RMK SLP305
Conditions at: CYKL (SCHEFFERVILLE AR, QC, CA) observed 1342 UTC 20 January 2019
Temperature: -37.0°C (-35°F)
Dewpoint: -42.0°C (-44°F) [RH = 60%]
Pressure (altimeter): 30.16 inches Hg (1021.4 mb)
[Sea-level pressure: 1030.5 mb]
Winds: from the NW (310 degrees) at 3 MPH (3 knots; 1.5 m/s)
Visibility: 3 miles ( 5 km)
Ceiling: 800 feet AGL
Clouds: broken clouds at 800 feet AGL
overcast cloud deck at 1100 feet AGL
Weather: HZ  (haze)

Forecast for: CYKL (SCHEFFERVILLE AR, QC, CA)
Text: TAF CYKL 201338Z 2014/2102 26008KT 6SM IC SKC
Forecast period: 1400 to 1600 UTC 20 January 2019
Forecast type: FROM: standard forecast or significant change
Winds: from the W (260 degrees) at 9 MPH (8 knots; 4.1 m/s)
Visibility: 6 miles (10 km)
Clouds: clear skies
Weather: IC  (ice crystals)
Text: TEMPO 2014/2016 21/2SM IC SCT009
Forecast period: 1400 to 1600 UTC 20 January 2019
Forecast type: TEMPORARY: The following changes expected for less than half the time period
Visibility: 2.50 miles (4.02 km)
Ceiling: at least 12,000 feet AGL
Clouds: scattered clouds at 900 feet AGL
Weather: IC  (ice crystals)
Text: FM201600 26008KT P6SM SKC
Forecast period: 1600 to 2100 UTC 20 January 2019
Forecast type: FROM: standard forecast or significant change
Winds: from the W (260 degrees) at 9 MPH (8 knots; 4.1 m/s)
Visibility: 6 or more miles 10+ km)
Clouds: clear skies
Weather: no significant weather forecast for this period
Text: TEMPO 2016/2102 3SM IC SCT012
Forecast period: 1600 UTC 20 January 2019 to 0200 UTC 21 January 2019
Forecast type: TEMPORARY: The following changes expected for less than half the time period
Visibility: 3 miles (5 km)
Ceiling: at least 12,000 feet AGL
Clouds: scattered clouds at 1200 feet AGL
Weather: IC  (ice crystals)
Text: BECMG 2021/2023 VRB03KT RMK FCST BASED ON AUTO OBS. AUTO OBS REP NON-REPRESENTATIVE CLD HGT. NXT FCST BY 202000Z
Forecast period: 2100 UTC 20 January 2019 to 0200 UTC 21 January 2019
Forecast type: BECOMING: Conditions expected to become as follows by 2300 UTC 20 January 2019
Winds: variable direction winds at 3 MPH (3 knots; 1.5 m/s)
Visibility: 6 or more miles 10+ km)
Clouds: clear skies
Weather: no significant weather forecast for this period

 AIRPORT MAP

Esri Leaflet Quickstart
 RUNWAY INFORMATION
Runway 18 Runway length 5000 ft Runway width 150 ft
Runway elevation 1688 ft Runway displaced threshold 0 ft Runway heading 149
Runway 36 Runway length 5000 ft Runway width 150 ft
Runway elevation 1698 ft Runway displaced threshold 0 ft Runway heading 329

 AIRPORT FREQUENCIES
Type A/G Name MF Frequency 122.2 MHZ
Type AWOS Name AWOS Frequency 124.6 MHZ
Type CNTR Name MONTREAL C Frequency 132.9 MHZ
Type FSS Name QUEBEC RDO Frequency 126.7 MHZ
Type RCO Name QUEBEC RDO Frequency 126.7 MHZ

 AIRPORT NEAR NAVIGATION AIDS
Type NDB Name Schefferville Frequency 203 KHZ
Type NDB Name Squaw Frequency 323 KHZ
Type VOR-DME Name Schefferville Frequency 112700 KHZ



Powered by Virtual Airlines Manager [v2.6.2]